createdAt,value
2022-08-09T05:32:56.313Z,82.30
2022-08-09T05:35:23.601Z,77.20
2022-08-09T05:37:51.179Z,76.80
2022-08-09T05:40:18.762Z,77.40
2022-08-09T05:42:47.031Z,77.30
2022-08-09T05:45:14.908Z,75.20
2022-08-09T05:47:52.425Z,71.30
2022-08-09T05:50:36.238Z,68.70
2022-08-09T05:53:31.711Z,64.30
2022-08-09T05:55:59.524Z,60.80
2022-08-09T05:58:28.832Z,59.60
2022-08-09T06:00:56.119Z,57.60
2022-08-09T06:03:25.888Z,56.00
2022-08-09T06:06:11.532Z,54.50
2022-08-09T06:08:39.089Z,52.60
2022-08-09T06:11:16.691Z,53.10
2022-08-09T06:13:45.944Z,52.40
2022-08-09T06:16:15.260Z,52.00
2022-08-09T06:18:43.685Z,51.00
2022-08-09T06:21:11.171Z,51.10
2022-08-09T06:23:58.820Z,50.10
2022-08-09T06:26:28.467Z,49.30
2022-08-09T06:29:01.083Z,48.90
2022-08-09T06:31:40.431Z,48.60
2022-08-09T06:34:23.105Z,48.20
2022-08-09T06:36:59.246Z,48.00
2022-08-09T06:39:38.862Z,47.20
2022-08-09T06:42:20.259Z,47.40
2022-08-09T06:44:54.207Z,47.20
2022-08-09T06:47:23.682Z,47.00
2022-08-09T06:50:13.742Z,46.80
2022-08-09T06:52:47.194Z,46.80
2022-08-09T06:55:23.203Z,46.20
2022-08-09T06:58:03.159Z,46.20
2022-08-09T07:00:49.067Z,46.90
2022-08-09T07:03:28.495Z,47.30
2022-08-09T07:06:02.980Z,47.60
2022-08-09T07:08:34.686Z,47.50
2022-08-09T07:11:04.192Z,47.10
2022-08-09T07:13:45.257Z,47.80
2022-08-09T07:16:42.563Z,47.20
2022-08-09T07:19:10.670Z,47.60
2022-08-09T07:21:55.889Z,47.10
2022-08-09T07:24:32.836Z,46.80
2022-08-09T07:27:10.855Z,46.90
2022-08-09T07:29:57.102Z,46.70
2022-08-09T07:32:32.507Z,46.40
2022-08-09T07:35:07.887Z,46.20
2022-08-09T07:37:43.521Z,45.70
2022-08-09T07:40:17.711Z,44.40
2022-08-09T07:42:50.671Z,44.50
2022-08-09T07:45:38.170Z,45.00
2022-08-09T07:48:25.908Z,44.50
2022-08-09T07:51:09.601Z,44.00
2022-08-09T07:54:05.982Z,42.90
2022-08-09T07:56:31.406Z,43.40
2022-08-09T07:58:59.301Z,43.20
2022-08-09T08:01:32.729Z,43.60
2022-08-09T08:04:03.318Z,45.00
2022-08-09T08:06:32.588Z,44.90
2022-08-09T08:09:05.104Z,44.00
2022-08-09T08:12:11.111Z,43.60
2022-08-09T08:14:25.803Z,43.50
2022-08-09T08:17:07.294Z,43.20
2022-08-09T08:19:35.205Z,42.80
2022-08-09T08:22:03.511Z,43.00
2022-08-09T08:24:35.259Z,43.30
2022-08-09T08:27:17.078Z,43.50
2022-08-09T08:29:50.011Z,43.70
2022-08-09T08:32:34.540Z,43.60
2022-08-09T08:35:08.690Z,44.80
2022-08-09T08:37:42.036Z,44.40
2022-08-09T08:40:24.434Z,45.30
2022-08-09T08:42:58.904Z,44.80
2022-08-09T08:45:37.668Z,43.50
2022-08-09T08:48:06.211Z,43.40
2022-08-09T08:50:38.198Z,43.70
2022-08-09T08:53:06.508Z,44.10
2022-08-09T08:55:43.888Z,44.40
2022-08-09T08:58:11.684Z,44.70
2022-08-09T09:00:41.214Z,43.90
2022-08-09T09:03:16.253Z,43.90
2022-08-09T09:06:01.117Z,43.60
2022-08-09T09:08:40.927Z,42.40
2022-08-09T09:11:13.755Z,42.20
2022-08-09T09:13:56.576Z,42.00
2022-08-09T09:16:29.899Z,43.60
2022-08-09T09:19:37.847Z,43.50
2022-08-09T09:22:11.318Z,43.80
2022-08-09T09:24:43.482Z,44.90
2022-08-09T09:28:02.973Z,43.90
2022-08-09T09:30:23.741Z,44.20
2022-08-09T09:33:15.625Z,43.40
2022-08-09T09:36:19.923Z,43.00
2022-08-09T09:38:50.723Z,41.90
2022-08-09T09:41:33.093Z,43.10
2022-08-09T09:44:11.055Z,42.10
2022-08-09T09:46:51.109Z,42.20
2022-08-09T09:49:31.954Z,41.80
2022-08-09T09:52:33.486Z,41.00
2022-08-09T09:55:24.252Z,42.90
2022-08-09T09:58:19.067Z,43.00
2022-08-09T10:00:59.795Z,41.30
2022-08-09T10:03:57.256Z,42.30
2022-08-09T10:06:31.935Z,43.00
2022-08-09T10:09:11.931Z,43.90
2022-08-09T10:12:14.762Z,44.30
2022-08-09T10:14:48.607Z,44.00
2022-08-09T10:17:40.340Z,43.90
2022-08-09T10:20:27.467Z,43.60
2022-08-09T10:23:17.390Z,43.10
2022-08-09T10:26:08.202Z,43.30
2022-08-09T10:28:36.148Z,43.50
2022-08-09T10:32:27.602Z,42.80
2022-08-09T10:34:08.704Z,42.90
2022-08-09T10:36:42.218Z,43.30
2022-08-09T10:39:15.456Z,43.50
2022-08-09T10:41:47.942Z,43.30
2022-08-09T10:44:21.692Z,44.00
2022-08-09T10:48:19.282Z,43.50
2022-08-09T10:50:31.088Z,44.00
2022-08-09T10:53:19.298Z,43.90
2022-08-09T10:55:55.129Z,43.80
2022-08-09T10:58:32.495Z,43.90
2022-08-09T11:03:02.816Z,44.10
2022-08-09T11:12:20.444Z,42.30
2022-08-09T11:14:54.866Z,42.80
2022-08-09T11:20:17.979Z,42.50
2022-08-09T11:28:34.456Z,42.00
2022-08-09T11:31:50.394Z,43.00
2022-08-09T11:34:33.453Z,42.80
2022-08-09T11:37:03.677Z,43.50
2022-08-09T11:40:04.985Z,44.00
2022-08-09T11:45:43.190Z,44.00
2022-08-09T11:52:49.005Z,43.60
2022-08-09T11:54:14.500Z,44.00
2022-08-09T11:56:48.945Z,44.20
2022-08-09T11:59:33.740Z,44.30
2022-08-09T12:02:17.501Z,44.20
2022-08-09T12:04:57.961Z,44.70
2022-08-09T12:07:28.875Z,44.80
2022-08-09T12:10:31.927Z,45.10
2022-08-09T12:12:58.129Z,45.00
2022-08-09T12:15:48.679Z,45.40
2022-08-09T12:18:29.655Z,44.90
2022-08-09T12:21:00.654Z,45.10
2022-08-09T12:23:56.589Z,45.50
2022-08-09T12:26:25.540Z,45.10
2022-08-09T12:29:10.224Z,45.90
2022-08-09T12:32:02.539Z,45.70
2022-08-09T12:34:40.465Z,46.10
2022-08-09T12:37:24.102Z,46.00
2022-08-09T12:40:02.688Z,45.90
2022-08-09T12:42:30.719Z,46.10
2022-08-09T12:44:59.476Z,46.10
2022-08-09T12:47:37.158Z,46.20
2022-08-09T12:50:19.641Z,46.00
2022-08-09T12:53:09.309Z,46.50
2022-08-09T12:56:14.580Z,45.90
2022-08-09T12:58:27.807Z,45.70
2022-08-09T13:00:56.666Z,45.50
2022-08-09T13:03:53.167Z,45.50
2022-08-09T13:06:37.040Z,45.80
2022-08-09T13:09:30.413Z,46.00
2022-08-09T13:12:03.176Z,46.00
2022-08-09T13:14:42.804Z,45.90
2022-08-09T13:17:43.814Z,45.40
2022-08-09T13:20:14.139Z,44.90
2022-08-09T13:23:06.072Z,45.30
2022-08-09T13:25:42.004Z,45.00
2022-08-09T13:28:11.741Z,44.90
2022-08-09T13:32:12.270Z,45.00
2022-08-09T13:33:52.599Z,45.10
2022-08-09T13:36:24.080Z,44.90
2022-08-09T13:41:50.641Z,45.00
2022-08-09T13:42:11.955Z,44.70
2022-08-09T13:44:42.866Z,45.10
2022-08-09T13:47:27.405Z,45.20
2022-08-09T13:50:01.988Z,45.20
2022-08-09T13:52:30.803Z,45.10
2022-08-09T13:55:04.542Z,45.10
2022-08-09T13:57:40.280Z,45.00
2022-08-09T14:00:16.517Z,44.90
2022-08-09T14:03:16.807Z,44.70
2022-08-09T14:05:57.120Z,44.60
2022-08-09T14:08:22.966Z,44.00
2022-08-09T14:10:52.153Z,44.20
2022-08-09T14:14:15.175Z,44.00
2022-08-09T14:16:15.310Z,44.00
2022-08-09T14:18:45.926Z,44.30
2022-08-09T14:21:21.024Z,44.60
2022-08-09T14:23:54.804Z,44.20
2022-08-09T14:26:32.936Z,44.20
2022-08-09T14:29:08.354Z,43.50
2022-08-09T14:31:53.401Z,43.60
2022-08-09T14:34:31.067Z,43.70
2022-08-09T14:37:06.020Z,43.60
2022-08-09T14:39:45.057Z,43.60
2022-08-09T14:42:30.069Z,43.90
2022-08-09T14:45:00.333Z,44.00
2022-08-09T14:47:44.641Z,44.00
2022-08-09T14:50:16.204Z,44.00
2022-08-09T14:52:50.680Z,43.40
2022-08-09T14:55:20.177Z,43.50
2022-08-09T14:57:49.174Z,43.50
2022-08-09T15:00:17.763Z,43.20
2022-08-09T15:02:47.126Z,43.10
2022-08-09T15:05:16.195Z,43.30
2022-08-09T15:07:45.474Z,43.60
2022-08-09T15:10:24.866Z,43.80
2022-08-09T15:12:54.004Z,44.10
2022-08-09T15:15:22.154Z,44.10
2022-08-09T15:17:52.413Z,44.00
2022-08-09T15:21:55.589Z,44.00
2022-08-09T15:24:01.906Z,44.00
2022-08-09T15:25:58.539Z,44.10
2022-08-09T15:28:28.388Z,43.60
2022-08-09T15:31:08.746Z,43.20
2022-08-09T15:34:17.408Z,43.80
2022-08-09T15:36:29.181Z,43.80
2022-08-09T15:39:00.173Z,44.00
2022-08-09T15:41:32.016Z,43.80
2022-08-09T15:44:01.734Z,43.50
2022-08-09T15:46:34.002Z,43.80
2022-08-09T15:49:21.127Z,43.60
2022-08-09T15:52:04.791Z,43.60
2022-08-09T15:54:46.273Z,43.80
2022-08-09T15:57:35.621Z,43.50
2022-08-09T16:00:14.823Z,43.60
